sensor_id;sensor_type;location;lat;lon;timestamp;P1;durP1;ratioP1;P2;durP2;ratioP2
60908;SDS011;46780;48.128;-1.704;2023-06-14T00:02:11;44.97;;;28.25;;
60908;SDS011;46780;48.128;-1.704;2023-06-14T00:04:38;44.67;;;28.27;;
60908;SDS011;46780;48.128;-1.704;2023-06-14T00:07:05;46.80;;;28.60;;
60908;SDS011;46780;48.128;-1.704;2023-06-14T00:09:31;42.72;;;28.88;;
60908;SDS011;46780;48.128;-1.704;2023-06-14T00:11:58;45.40;;;29.55;;
60908;SDS011;46780;48.128;-1.704;2023-06-14T00:14:26;45.30;;;28.55;;
60908;SDS011;46780;48.128;-1.704;2023-06-14T00:16:52;45.83;;;29.35;;
60908;SDS011;46780;48.128;-1.704;2023-06-14T00:19:18;47.05;;;29.60;;
60908;SDS011;46780;48.128;-1.704;2023-06-14T00:21:45;48.28;;;30.25;;
60908;SDS011;46780;48.128;-1.704;2023-06-14T00:24:11;49.13;;;30.50;;
60908;SDS011;46780;48.128;-1.704;2023-06-14T00:26:38;48.10;;;30.23;;
60908;SDS011;46780;48.128;-1.704;2023-06-14T00:29:04;50.13;;;30.88;;
60908;SDS011;46780;48.128;-1.704;2023-06-14T00:31:32;48.47;;;30.13;;
60908;SDS011;46780;48.128;-1.704;2023-06-14T00:33:58;48.17;;;31.15;;
60908;SDS011;46780;48.128;-1.704;2023-06-14T00:36:25;50.40;;;31.08;;
60908;SDS011;46780;48.128;-1.704;2023-06-14T00:38:51;55.55;;;31.95;;
60908;SDS011;46780;48.128;-1.704;2023-06-14T00:41:18;50.25;;;31.83;;
60908;SDS011;46780;48.128;-1.704;2023-06-14T00:43:44;52.38;;;33.35;;
60908;SDS011;46780;48.128;-1.704;2023-06-14T00:46:11;52.30;;;32.78;;
60908;SDS011;46780;48.128;-1.704;2023-06-14T00:48:39;57.30;;;34.65;;
60908;SDS011;46780;48.128;-1.704;2023-06-14T00:51:06;57.55;;;33.70;;
60908;SDS011;46780;48.128;-1.704;2023-06-14T00:53:32;51.92;;;34.47;;
60908;SDS011;46780;48.128;-1.704;2023-06-14T00:56:00;54.15;;;34.58;;
60908;SDS011;46780;48.128;-1.704;2023-06-14T00:58:26;54.95;;;34.90;;
60908;SDS011;46780;48.128;-1.704;2023-06-14T01:00:54;56.33;;;35.15;;
60908;SDS011;46780;48.128;-1.704;2023-06-14T01:03:20;55.05;;;34.83;;
60908;SDS011;46780;48.128;-1.704;2023-06-14T01:05:48;58.28;;;36.03;;
60908;SDS011;46780;48.128;-1.704;2023-06-14T01:08:20;55.60;;;35.00;;
60908;SDS011;46780;48.128;-1.704;2023-06-14T01:10:52;59.00;;;36.72;;
60908;SDS011;46780;48.128;-1.704;2023-06-14T01:13:25;57.70;;;36.63;;
60908;SDS011;46780;48.128;-1.704;2023-06-14T01:15:54;59.50;;;36.30;;
60908;SDS011;46780;48.128;-1.704;2023-06-14T01:18:21;59.00;;;37.70;;
60908;SDS011;46780;48.128;-1.704;2023-06-14T01:20:50;60.22;;;37.65;;
60908;SDS011;46780;48.128;-1.704;2023-06-14T01:23:18;62.92;;;38.30;;
60908;SDS011;46780;48.128;-1.704;2023-06-14T01:25:45;57.97;;;37.00;;
60908;SDS011;46780;48.128;-1.704;2023-06-14T01:28:11;63.70;;;38.45;;
60908;SDS011;46780;48.128;-1.704;2023-06-14T01:30:40;59.45;;;37.72;;
60908;SDS011;46780;48.128;-1.704;2023-06-14T01:33:08;59.80;;;37.10;;
60908;SDS011;46780;48.128;-1.704;2023-06-14T01:35:35;60.17;;;37.97;;
60908;SDS011;46780;48.128;-1.704;2023-06-14T01:38:02;61.67;;;38.22;;
60908;SDS011;46780;48.128;-1.704;2023-06-14T01:40:30;61.53;;;38.95;;
60908;SDS011;46780;48.128;-1.704;2023-06-14T01:42:58;62.65;;;38.65;;
60908;SDS011;46780;48.128;-1.704;2023-06-14T01:45:25;63.17;;;39.75;;
60908;SDS011;46780;48.128;-1.704;2023-06-14T01:47:51;62.47;;;38.45;;
60908;SDS011;46780;48.128;-1.704;2023-06-14T01:50:19;62.22;;;38.97;;
60908;SDS011;46780;48.128;-1.704;2023-06-14T01:52:46;61.65;;;39.85;;
60908;SDS011;46780;48.128;-1.704;2023-06-14T01:55:12;64.85;;;40.35;;
60908;SDS011;46780;48.128;-1.704;2023-06-14T01:57:40;65.63;;;40.33;;
60908;SDS011;46780;48.128;-1.704;2023-06-14T02:00:07;65.40;;;40.45;;
60908;SDS011;46780;48.128;-1.704;2023-06-14T02:02:34;62.50;;;39.17;;
60908;SDS011;46780;48.128;-1.704;2023-06-14T02:05:00;60.05;;;39.28;;
60908;SDS011;46780;48.128;-1.704;2023-06-14T02:07:27;61.47;;;39.35;;
60908;SDS011;46780;48.128;-1.704;2023-06-14T02:09:53;66.18;;;39.13;;
60908;SDS011;46780;48.128;-1.704;2023-06-14T02:12:20;63.08;;;39.28;;
60908;SDS011;46780;48.128;-1.704;2023-06-14T02:14:47;64.35;;;39.67;;
60908;SDS011;46780;48.128;-1.704;2023-06-14T02:17:14;65.40;;;39.70;;
60908;SDS011;46780;48.128;-1.704;2023-06-14T02:19:40;66.03;;;40.40;;
60908;SDS011;46780;48.128;-1.704;2023-06-14T02:22:07;67.53;;;40.35;;
60908;SDS011;46780;48.128;-1.704;2023-06-14T02:24:33;62.78;;;38.85;;
60908;SDS011;46780;48.128;-1.704;2023-06-14T02:27:00;69.55;;;40.63;;
60908;SDS011;46780;48.128;-1.704;2023-06-14T02:29:26;64.93;;;41.45;;
60908;SDS011;46780;48.128;-1.704;2023-06-14T02:31:54;65.00;;;42.17;;
60908;SDS011;46780;48.128;-1.704;2023-06-14T02:34:20;69.88;;;41.60;;
60908;SDS011;46780;48.128;-1.704;2023-06-14T02:36:47;68.40;;;42.28;;
60908;SDS011;46780;48.128;-1.704;2023-06-14T02:39:13;66.65;;;42.25;;
60908;SDS011;46780;48.128;-1.704;2023-06-14T02:41:40;64.28;;;41.78;;
60908;SDS011;46780;48.128;-1.704;2023-06-14T02:44:06;68.07;;;42.20;;
60908;SDS011;46780;48.128;-1.704;2023-06-14T02:46:33;65.88;;;42.97;;
60908;SDS011;46780;48.128;-1.704;2023-06-14T02:49:01;72.85;;;43.38;;
60908;SDS011;46780;48.128;-1.704;2023-06-14T02:51:27;69.63;;;42.78;;
60908;SDS011;46780;48.128;-1.704;2023-06-14T02:53:53;69.47;;;42.88;;
60908;SDS011;46780;48.128;-1.704;2023-06-14T02:56:20;67.30;;;42.92;;
60908;SDS011;46780;48.128;-1.704;2023-06-14T02:58:46;66.50;;;43.13;;
60908;SDS011;46780;48.128;-1.704;2023-06-14T03:01:13;72.20;;;43.83;;
60908;SDS011;46780;48.128;-1.704;2023-06-14T03:03:39;70.40;;;42.28;;
60908;SDS011;46780;48.128;-1.704;2023-06-14T03:06:07;66.00;;;41.53;;
60908;SDS011;46780;48.128;-1.704;2023-06-14T03:08:34;70.28;;;42.35;;
60908;SDS011;46780;48.128;-1.704;2023-06-14T03:11:00;80.68;;;44.47;;
60908;SDS011;46780;48.128;-1.704;2023-06-14T03:13:27;65.68;;;42.20;;
60908;SDS011;46780;48.128;-1.704;2023-06-14T03:15:53;70.18;;;43.15;;
60908;SDS011;46780;48.128;-1.704;2023-06-14T03:18:19;74.22;;;43.22;;
60908;SDS011;46780;48.128;-1.704;2023-06-14T03:20:46;70.82;;;43.70;;
60908;SDS011;46780;48.128;-1.704;2023-06-14T03:23:14;71.20;;;43.20;;
60908;SDS011;46780;48.128;-1.704;2023-06-14T03:25:40;70.95;;;42.83;;
60908;SDS011;46780;48.128;-1.704;2023-06-14T03:28:07;70.63;;;42.65;;
60908;SDS011;46780;48.128;-1.704;2023-06-14T03:30:33;71.80;;;42.08;;
60908;SDS011;46780;48.128;-1.704;2023-06-14T03:33:00;75.30;;;43.95;;
60908;SDS011;46780;48.128;-1.704;2023-06-14T03:35:26;72.13;;;43.50;;
60908;SDS011;46780;48.128;-1.704;2023-06-14T03:37:53;73.05;;;43.05;;
60908;SDS011;46780;48.128;-1.704;2023-06-14T03:40:21;77.03;;;43.45;;
60908;SDS011;46780;48.128;-1.704;2023-06-14T03:42:48;74.38;;;42.90;;
60908;SDS011;46780;48.128;-1.704;2023-06-14T03:45:14;73.60;;;44.92;;
60908;SDS011;46780;48.128;-1.704;2023-06-14T03:47:41;76.25;;;43.53;;
60908;SDS011;46780;48.128;-1.704;2023-06-14T03:50:08;68.97;;;42.10;;
60908;SDS011;46780;48.128;-1.704;2023-06-14T03:52:35;70.90;;;42.35;;
60908;SDS011;46780;48.128;-1.704;2023-06-14T03:55:01;76.65;;;43.17;;
60908;SDS011;46780;48.128;-1.704;2023-06-14T03:57:29;77.32;;;44.47;;
60908;SDS011;46780;48.128;-1.704;2023-06-14T03:59:56;73.45;;;42.83;;
60908;SDS011;46780;48.128;-1.704;2023-06-14T04:02:22;72.90;;;42.55;;
60908;SDS011;46780;48.128;-1.704;2023-06-14T04:04:49;75.38;;;43.95;;
60908;SDS011;46780;48.128;-1.704;2023-06-14T04:07:15;74.20;;;43.70;;
60908;SDS011;46780;48.128;-1.704;2023-06-14T04:09:42;72.35;;;43.13;;
60908;SDS011;46780;48.128;-1.704;2023-06-14T04:12:09;75.50;;;43.35;;
60908;SDS011;46780;48.128;-1.704;2023-06-14T04:14:37;70.32;;;42.33;;
60908;SDS011;46780;48.128;-1.704;2023-06-14T04:17:04;68.40;;;42.78;;
60908;SDS011;46780;48.128;-1.704;2023-06-14T04:19:30;71.10;;;42.38;;
60908;SDS011;46780;48.128;-1.704;2023-06-14T04:21:57;70.57;;;43.15;;
60908;SDS011;46780;48.128;-1.704;2023-06-14T04:24:23;72.03;;;43.10;;
60908;SDS011;46780;48.128;-1.704;2023-06-14T04:26:50;67.10;;;41.25;;
60908;SDS011;46780;48.128;-1.704;2023-06-14T04:29:16;72.97;;;40.88;;
60908;SDS011;46780;48.128;-1.704;2023-06-14T04:31:44;69.47;;;40.08;;
60908;SDS011;46780;48.128;-1.704;2023-06-14T04:34:12;68.25;;;40.92;;
60908;SDS011;46780;48.128;-1.704;2023-06-14T04:36:38;70.22;;;40.33;;
60908;SDS011;46780;48.128;-1.704;2023-06-14T04:39:05;66.35;;;40.78;;
60908;SDS011;46780;48.128;-1.704;2023-06-14T04:41:31;67.35;;;39.45;;
60908;SDS011;46780;48.128;-1.704;2023-06-14T04:43:58;60.40;;;39.08;;
60908;SDS011;46780;48.128;-1.704;2023-06-14T04:46:25;63.03;;;40.30;;
60908;SDS011;46780;48.128;-1.704;2023-06-14T04:48:53;65.80;;;39.88;;
60908;SDS011;46780;48.128;-1.704;2023-06-14T04:51:20;63.20;;;39.10;;
60908;SDS011;46780;48.128;-1.704;2023-06-14T04:53:46;64.63;;;39.03;;
60908;SDS011;46780;48.128;-1.704;2023-06-14T04:56:13;69.75;;;39.45;;
60908;SDS011;46780;48.128;-1.704;2023-06-14T04:58:39;64.82;;;38.35;;
60908;SDS011;46780;48.128;-1.704;2023-06-14T05:01:06;60.30;;;37.95;;
60908;SDS011;46780;48.128;-1.704;2023-06-14T05:03:32;67.18;;;39.13;;
60908;SDS011;46780;48.128;-1.704;2023-06-14T05:06:00;58.70;;;37.33;;
60908;SDS011;46780;48.128;-1.704;2023-06-14T05:08:26;60.92;;;37.53;;
60908;SDS011;46780;48.128;-1.704;2023-06-14T05:10:53;62.75;;;37.72;;
60908;SDS011;46780;48.128;-1.704;2023-06-14T05:13:19;60.80;;;36.28;;
60908;SDS011;46780;48.128;-1.704;2023-06-14T05:15:46;60.40;;;36.10;;
60908;SDS011;46780;48.128;-1.704;2023-06-14T05:18:12;60.22;;;36.03;;
60908;SDS011;46780;48.128;-1.704;2023-06-14T05:20:39;54.72;;;35.03;;
60908;SDS011;46780;48.128;-1.704;2023-06-14T05:23:06;61.13;;;36.47;;
60908;SDS011;46780;48.128;-1.704;2023-06-14T05:25:33;59.30;;;35.90;;
60908;SDS011;46780;48.128;-1.704;2023-06-14T05:27:59;56.63;;;36.30;;
60908;SDS011;46780;48.128;-1.704;2023-06-14T05:30:26;58.33;;;35.30;;
60908;SDS011;46780;48.128;-1.704;2023-06-14T05:32:52;57.08;;;35.45;;
60908;SDS011;46780;48.128;-1.704;2023-06-14T05:35:19;56.72;;;34.67;;
60908;SDS011;46780;48.128;-1.704;2023-06-14T05:37:45;56.30;;;35.22;;
60908;SDS011;46780;48.128;-1.704;2023-06-14T05:40:13;58.00;;;33.63;;
60908;SDS011;46780;48.128;-1.704;2023-06-14T05:42:40;58.97;;;34.35;;
60908;SDS011;46780;48.128;-1.704;2023-06-14T05:45:06;55.38;;;34.13;;
60908;SDS011;46780;48.128;-1.704;2023-06-14T05:47:33;58.58;;;34.40;;
60908;SDS011;46780;48.128;-1.704;2023-06-14T05:50:00;55.10;;;33.63;;
60908;SDS011;46780;48.128;-1.704;2023-06-14T05:52:26;50.00;;;32.33;;
60908;SDS011;46780;48.128;-1.704;2023-06-14T05:54:58;50.83;;;31.70;;
60908;SDS011;46780;48.128;-1.704;2023-06-14T05:57:27;49.22;;;31.15;;
60908;SDS011;46780;48.128;-1.704;2023-06-14T05:59:54;48.88;;;31.83;;
60908;SDS011;46780;48.128;-1.704;2023-06-14T06:02:20;47.63;;;31.65;;
60908;SDS011;46780;48.128;-1.704;2023-06-14T06:04:47;50.28;;;30.00;;
60908;SDS011;46780;48.128;-1.704;2023-06-14T06:07:13;51.72;;;30.85;;
60908;SDS011;46780;48.128;-1.704;2023-06-14T06:09:40;52.78;;;30.27;;
60908;SDS011;46780;48.128;-1.704;2023-06-14T06:12:06;46.33;;;29.55;;
60908;SDS011;46780;48.128;-1.704;2023-06-14T06:14:34;45.13;;;28.95;;
60908;SDS011;46780;48.128;-1.704;2023-06-14T06:17:01;47.25;;;28.40;;
60908;SDS011;46780;48.128;-1.704;2023-06-14T06:19:27;42.90;;;27.35;;
60908;SDS011;46780;48.128;-1.704;2023-06-14T06:21:54;41.75;;;27.27;;
60908;SDS011;46780;48.128;-1.704;2023-06-14T06:24:20;44.55;;;27.23;;
60908;SDS011;46780;48.128;-1.704;2023-06-14T06:26:46;42.88;;;26.55;;
60908;SDS011;46780;48.128;-1.704;2023-06-14T06:29:13;41.75;;;25.63;;
60908;SDS011;46780;48.128;-1.704;2023-06-14T06:31:41;44.05;;;26.25;;
60908;SDS011;46780;48.128;-1.704;2023-06-14T06:34:07;44.55;;;27.38;;
60908;SDS011;46780;48.128;-1.704;2023-06-14T06:36:34;49.05;;;26.85;;
60908;SDS011;46780;48.128;-1.704;2023-06-14T06:39:00;43.60;;;25.90;;
60908;SDS011;46780;48.128;-1.704;2023-06-14T06:41:27;43.28;;;25.85;;
60908;SDS011;46780;48.128;-1.704;2023-06-14T06:43:53;42.35;;;24.73;;
60908;SDS011;46780;48.128;-1.704;2023-06-14T06:46:19;43.03;;;25.65;;
60908;SDS011;46780;48.128;-1.704;2023-06-14T06:48:47;39.90;;;24.75;;
60908;SDS011;46780;48.128;-1.704;2023-06-14T06:51:14;44.90;;;25.23;;
60908;SDS011;46780;48.128;-1.704;2023-06-14T06:53:41;42.03;;;25.80;;
60908;SDS011;46780;48.128;-1.704;2023-06-14T06:56:08;39.92;;;25.60;;
60908;SDS011;46780;48.128;-1.704;2023-06-14T06:58:34;45.42;;;27.48;;
60908;SDS011;46780;48.128;-1.704;2023-06-14T07:01:01;37.03;;;24.25;;
60908;SDS011;46780;48.128;-1.704;2023-06-14T07:03:28;43.72;;;24.48;;
60908;SDS011;46780;48.128;-1.704;2023-06-14T07:05:55;39.63;;;23.52;;
60908;SDS011;46780;48.128;-1.704;2023-06-14T07:08:22;45.70;;;23.02;;
60908;SDS011;46780;48.128;-1.704;2023-06-14T07:10:48;38.97;;;24.05;;
60908;SDS011;46780;48.128;-1.704;2023-06-14T07:13:15;38.63;;;23.05;;
60908;SDS011;46780;48.128;-1.704;2023-06-14T07:15:41;40.45;;;22.85;;
60908;SDS011;46780;48.128;-1.704;2023-06-14T07:18:07;36.13;;;23.00;;
60908;SDS011;46780;48.128;-1.704;2023-06-14T07:20:34;39.78;;;22.42;;
60908;SDS011;46780;48.128;-1.704;2023-06-14T07:23:02;41.45;;;22.33;;
60908;SDS011;46780;48.128;-1.704;2023-06-14T07:25:28;36.70;;;22.05;;
60908;SDS011;46780;48.128;-1.704;2023-06-14T07:27:55;38.90;;;22.20;;
60908;SDS011;46780;48.128;-1.704;2023-06-14T07:30:21;38.40;;;22.05;;
60908;SDS011;46780;48.128;-1.704;2023-06-14T07:32:48;36.35;;;22.50;;
60908;SDS011;46780;48.128;-1.704;2023-06-14T07:35:14;35.88;;;20.50;;
60908;SDS011;46780;48.128;-1.704;2023-06-14T07:37:41;31.92;;;21.00;;
60908;SDS011;46780;48.128;-1.704;2023-06-14T07:40:09;42.50;;;20.48;;
60908;SDS011;46780;48.128;-1.704;2023-06-14T07:42:36;38.67;;;20.13;;
60908;SDS011;46780;48.128;-1.704;2023-06-14T07:45:03;35.63;;;20.48;;
60908;SDS011;46780;48.128;-1.704;2023-06-14T07:47:30;34.97;;;20.38;;
60908;SDS011;46780;48.128;-1.704;2023-06-14T07:49:56;37.95;;;20.27;;
60908;SDS011;46780;48.128;-1.704;2023-06-14T07:52:23;34.08;;;19.20;;
60908;SDS011;46780;48.128;-1.704;2023-06-14T07:54:49;35.92;;;19.17;;
60908;SDS011;46780;48.128;-1.704;2023-06-14T07:57:17;34.50;;;19.58;;
60908;SDS011;46780;48.128;-1.704;2023-06-14T07:59:44;35.30;;;19.40;;
60908;SDS011;46780;48.128;-1.704;2023-06-14T08:02:10;30.75;;;18.75;;
60908;SDS011;46780;48.128;-1.704;2023-06-14T08:04:37;34.38;;;18.38;;
60908;SDS011;46780;48.128;-1.704;2023-06-14T08:07:04;31.77;;;19.15;;
60908;SDS011;46780;48.128;-1.704;2023-06-14T08:09:31;31.65;;;18.65;;
60908;SDS011;46780;48.128;-1.704;2023-06-14T08:11:57;32.70;;;18.08;;
60908;SDS011;46780;48.128;-1.704;2023-06-14T08:14:25;32.25;;;17.65;;
60908;SDS011;46780;48.128;-1.704;2023-06-14T08:16:52;39.33;;;17.75;;
60908;SDS011;46780;48.128;-1.704;2023-06-14T08:19:18;34.67;;;20.00;;
60908;SDS011;46780;48.128;-1.704;2023-06-14T08:21:45;33.90;;;19.92;;
60908;SDS011;46780;48.128;-1.704;2023-06-14T08:24:11;35.95;;;21.08;;
60908;SDS011;46780;48.128;-1.704;2023-06-14T08:26:38;32.72;;;17.65;;
60908;SDS011;46780;48.128;-1.704;2023-06-14T08:29:04;31.50;;;17.77;;
60908;SDS011;46780;48.128;-1.704;2023-06-14T08:31:32;30.08;;;17.83;;
60908;SDS011;46780;48.128;-1.704;2023-06-14T08:33:59;33.63;;;19.52;;
60908;SDS011;46780;48.128;-1.704;2023-06-14T08:36:26;30.10;;;19.02;;
60908;SDS011;46780;48.128;-1.704;2023-06-14T08:38:52;35.45;;;19.38;;
60908;SDS011;46780;48.128;-1.704;2023-06-14T08:41:20;28.55;;;17.30;;
60908;SDS011;46780;48.128;-1.704;2023-06-14T08:43:47;30.13;;;19.05;;
60908;SDS011;46780;48.128;-1.704;2023-06-14T08:46:14;33.85;;;19.35;;
60908;SDS011;46780;48.128;-1.704;2023-06-14T08:48:44;30.50;;;16.60;;
60908;SDS011;46780;48.128;-1.704;2023-06-14T08:51:11;33.67;;;18.23;;
60908;SDS011;46780;48.128;-1.704;2023-06-14T08:53:39;29.55;;;16.92;;
60908;SDS011;46780;48.128;-1.704;2023-06-14T08:56:06;32.60;;;15.85;;
60908;SDS011;46780;48.128;-1.704;2023-06-14T08:58:32;28.55;;;15.48;;
60908;SDS011;46780;48.128;-1.704;2023-06-14T09:01:00;32.65;;;14.77;;
60908;SDS011;46780;48.128;-1.704;2023-06-14T09:03:28;30.85;;;15.70;;
60908;SDS011;46780;48.128;-1.704;2023-06-14T09:05:56;27.30;;;14.52;;
60908;SDS011;46780;48.128;-1.704;2023-06-14T09:08:22;26.98;;;15.25;;
60908;SDS011;46780;48.128;-1.704;2023-06-14T09:10:49;25.85;;;14.38;;
60908;SDS011;46780;48.128;-1.704;2023-06-14T09:13:16;30.33;;;15.45;;
60908;SDS011;46780;48.128;-1.704;2023-06-14T09:15:43;34.65;;;13.52;;
60908;SDS011;46780;48.128;-1.704;2023-06-14T09:18:10;26.88;;;14.07;;
60908;SDS011;46780;48.128;-1.704;2023-06-14T09:20:37;24.20;;;14.13;;
60908;SDS011;46780;48.128;-1.704;2023-06-14T09:23:05;27.10;;;14.77;;
60908;SDS011;46780;48.128;-1.704;2023-06-14T09:25:31;29.33;;;13.95;;
60908;SDS011;46780;48.128;-1.704;2023-06-14T09:27:58;29.42;;;13.77;;
60908;SDS011;46780;48.128;-1.704;2023-06-14T09:30:25;25.73;;;14.48;;
60908;SDS011;46780;48.128;-1.704;2023-06-14T09:32:52;25.00;;;13.23;;
60908;SDS011;46780;48.128;-1.704;2023-06-14T09:35:20;26.23;;;13.70;;
60908;SDS011;46780;48.128;-1.704;2023-06-14T09:37:46;26.33;;;13.57;;
60908;SDS011;46780;48.128;-1.704;2023-06-14T09:40:15;22.63;;;13.23;;
60908;SDS011;46780;48.128;-1.704;2023-06-14T09:42:46;23.02;;;13.20;;
60908;SDS011;46780;48.128;-1.704;2023-06-14T09:45:14;26.45;;;12.95;;
60908;SDS011;46780;48.128;-1.704;2023-06-14T09:47:40;21.52;;;12.45;;
60908;SDS011;46780;48.128;-1.704;2023-06-14T09:50:08;22.40;;;12.43;;
60908;SDS011;46780;48.128;-1.704;2023-06-14T09:52:35;23.80;;;12.68;;
60908;SDS011;46780;48.128;-1.704;2023-06-14T09:55:01;23.60;;;12.45;;
60908;SDS011;46780;48.128;-1.704;2023-06-14T09:57:38;20.25;;;12.60;;
60908;SDS011;46780;48.128;-1.704;2023-06-14T10:00:08;23.48;;;12.10;;
60908;SDS011;46780;48.128;-1.704;2023-06-14T10:02:36;20.98;;;12.23;;
60908;SDS011;46780;48.128;-1.704;2023-06-14T10:05:03;24.10;;;13.00;;
60908;SDS011;46780;48.128;-1.704;2023-06-14T10:07:32;19.88;;;12.02;;
60908;SDS011;46780;48.128;-1.704;2023-06-14T10:10:01;21.00;;;12.95;;
60908;SDS011;46780;48.128;-1.704;2023-06-14T10:12:28;26.23;;;12.45;;
60908;SDS011;46780;48.128;-1.704;2023-06-14T10:14:57;24.67;;;12.68;;
60908;SDS011;46780;48.128;-1.704;2023-06-14T10:17:26;23.52;;;11.55;;
60908;SDS011;46780;48.128;-1.704;2023-06-14T10:20:06;23.35;;;12.43;;
60908;SDS011;46780;48.128;-1.704;2023-06-14T10:22:43;19.52;;;11.38;;
60908;SDS011;46780;48.128;-1.704;2023-06-14T10:25:26;22.38;;;12.30;;
60908;SDS011;46780;48.128;-1.704;2023-06-14T10:27:53;23.85;;;12.57;;
60908;SDS011;46780;48.128;-1.704;2023-06-14T10:30:30;21.23;;;12.07;;
60908;SDS011;46780;48.128;-1.704;2023-06-14T10:33:03;23.05;;;12.13;;
60908;SDS011;46780;48.128;-1.704;2023-06-14T10:35:30;22.60;;;12.10;;
60908;SDS011;46780;48.128;-1.704;2023-06-14T10:38:06;24.45;;;12.63;;
60908;SDS011;46780;48.128;-1.704;2023-06-14T10:40:33;22.23;;;11.73;;
60908;SDS011;46780;48.128;-1.704;2023-06-14T10:43:00;23.52;;;12.88;;
60908;SDS011;46780;48.128;-1.704;2023-06-14T10:48:44;25.25;;;12.55;;
60908;SDS011;46780;48.128;-1.704;2023-06-14T10:51:17;24.33;;;11.85;;
60908;SDS011;46780;48.128;-1.704;2023-06-14T10:53:44;21.92;;;12.07;;
60908;SDS011;46780;48.128;-1.704;2023-06-14T10:56:22;22.63;;;12.00;;
60908;SDS011;46780;48.128;-1.704;2023-06-14T10:58:49;23.70;;;12.07;;
60908;SDS011;46780;48.128;-1.704;2023-06-14T11:01:17;23.92;;;13.07;;
60908;SDS011;46780;48.128;-1.704;2023-06-14T11:03:50;22.17;;;12.65;;
60908;SDS011;46780;48.128;-1.704;2023-06-14T11:06:17;22.70;;;13.10;;
60908;SDS011;46780;48.128;-1.704;2023-06-14T11:08:54;25.63;;;12.95;;
60908;SDS011;46780;48.128;-1.704;2023-06-14T11:11:54;33.78;;;16.80;;
60908;SDS011;46780;48.128;-1.704;2023-06-14T11:14:22;25.65;;;13.63;;
60908;SDS011;46780;48.128;-1.704;2023-06-14T11:16:50;25.05;;;11.85;;
60908;SDS011;46780;48.128;-1.704;2023-06-14T11:19:17;26.25;;;12.85;;
60908;SDS011;46780;48.128;-1.704;2023-06-14T11:21:46;25.17;;;12.95;;
60908;SDS011;46780;48.128;-1.704;2023-06-14T11:24:13;25.83;;;13.02;;
60908;SDS011;46780;48.128;-1.704;2023-06-14T11:26:40;23.45;;;12.65;;
60908;SDS011;46780;48.128;-1.704;2023-06-14T11:29:06;25.02;;;12.73;;
60908;SDS011;46780;48.128;-1.704;2023-06-14T11:31:33;21.60;;;12.88;;
60908;SDS011;46780;48.128;-1.704;2023-06-14T11:34:01;28.17;;;14.85;;
60908;SDS011;46780;48.128;-1.704;2023-06-14T11:36:27;25.98;;;14.45;;
60908;SDS011;46780;48.128;-1.704;2023-06-14T11:38:57;26.58;;;12.90;;
60908;SDS011;46780;48.128;-1.704;2023-06-14T11:41:24;24.02;;;12.75;;
60908;SDS011;46780;48.128;-1.704;2023-06-14T11:43:52;23.45;;;12.43;;
60908;SDS011;46780;48.128;-1.704;2023-06-14T11:46:18;24.95;;;12.98;;
60908;SDS011;46780;48.128;-1.704;2023-06-14T11:48:45;21.40;;;12.13;;
60908;SDS011;46780;48.128;-1.704;2023-06-14T11:51:13;23.33;;;11.35;;
60908;SDS011;46780;48.128;-1.704;2023-06-14T11:53:39;27.10;;;12.77;;
60908;SDS011;46780;48.128;-1.704;2023-06-14T11:56:08;21.35;;;12.60;;
60908;SDS011;46780;48.128;-1.704;2023-06-14T11:58:34;24.33;;;12.75;;
60908;SDS011;46780;48.128;-1.704;2023-06-14T12:01:02;20.98;;;12.05;;
60908;SDS011;46780;48.128;-1.704;2023-06-14T12:03:29;21.25;;;11.95;;
60908;SDS011;46780;48.128;-1.704;2023-06-14T12:06:02;27.20;;;11.70;;
60908;SDS011;46780;48.128;-1.704;2023-06-14T12:08:35;23.25;;;12.65;;
60908;SDS011;46780;48.128;-1.704;2023-06-14T12:11:02;29.17;;;12.55;;
60908;SDS011;46780;48.128;-1.704;2023-06-14T12:13:29;21.73;;;11.98;;
60908;SDS011;46780;48.128;-1.704;2023-06-14T12:15:56;22.83;;;12.48;;
60908;SDS011;46780;48.128;-1.704;2023-06-14T12:18:31;20.98;;;12.30;;
60908;SDS011;46780;48.128;-1.704;2023-06-14T12:20:58;19.17;;;12.73;;
60908;SDS011;46780;48.128;-1.704;2023-06-14T12:23:25;20.42;;;12.23;;
60908;SDS011;46780;48.128;-1.704;2023-06-14T12:25:53;19.48;;;12.63;;
60908;SDS011;46780;48.128;-1.704;2023-06-14T12:28:19;23.10;;;11.82;;
60908;SDS011;46780;48.128;-1.704;2023-06-14T12:30:46;26.15;;;11.52;;
60908;SDS011;46780;48.128;-1.704;2023-06-14T12:33:12;23.63;;;11.98;;
60908;SDS011;46780;48.128;-1.704;2023-06-14T12:35:39;22.60;;;12.18;;
60908;SDS011;46780;48.128;-1.704;2023-06-14T12:38:05;22.75;;;12.52;;
60908;SDS011;46780;48.128;-1.704;2023-06-14T12:40:32;21.65;;;11.88;;
60908;SDS011;46780;48.128;-1.704;2023-06-14T12:43:00;19.88;;;12.15;;
60908;SDS011;46780;48.128;-1.704;2023-06-14T12:45:26;23.40;;;12.38;;
60908;SDS011;46780;48.128;-1.704;2023-06-14T12:47:53;25.38;;;12.15;;
60908;SDS011;46780;48.128;-1.704;2023-06-14T12:50:19;20.05;;;12.10;;
60908;SDS011;46780;48.128;-1.704;2023-06-14T12:52:46;22.63;;;12.07;;
60908;SDS011;46780;48.128;-1.704;2023-06-14T12:55:12;24.35;;;12.70;;
60908;SDS011;46780;48.128;-1.704;2023-06-14T12:57:39;17.88;;;11.98;;
60908;SDS011;46780;48.128;-1.704;2023-06-14T13:00:07;20.33;;;12.13;;
60908;SDS011;46780;48.128;-1.704;2023-06-14T13:02:34;20.05;;;12.07;;
60908;SDS011;46780;48.128;-1.704;2023-06-14T13:05:01;20.75;;;12.43;;
60908;SDS011;46780;48.128;-1.704;2023-06-14T13:07:27;20.10;;;11.65;;
60908;SDS011;46780;48.128;-1.704;2023-06-14T13:09:54;18.88;;;11.73;;
60908;SDS011;46780;48.128;-1.704;2023-06-14T13:12:20;24.45;;;12.23;;
60908;SDS011;46780;48.128;-1.704;2023-06-14T13:14:47;22.70;;;11.85;;
60908;SDS011;46780;48.128;-1.704;2023-06-14T13:17:15;21.48;;;12.73;;
60908;SDS011;46780;48.128;-1.704;2023-06-14T13:19:41;22.50;;;12.35;;
60908;SDS011;46780;48.128;-1.704;2023-06-14T13:22:08;19.95;;;12.32;;
60908;SDS011;46780;48.128;-1.704;2023-06-14T13:24:35;23.48;;;12.23;;
60908;SDS011;46780;48.128;-1.704;2023-06-14T13:27:01;22.42;;;12.35;;
60908;SDS011;46780;48.128;-1.704;2023-06-14T13:29:28;20.67;;;12.18;;
60908;SDS011;46780;48.128;-1.704;2023-06-14T13:31:55;23.02;;;12.57;;
60908;SDS011;46780;48.128;-1.704;2023-06-14T13:34:23;23.00;;;12.48;;
60908;SDS011;46780;48.128;-1.704;2023-06-14T13:36:50;20.00;;;11.43;;
60908;SDS011;46780;48.128;-1.704;2023-06-14T13:39:16;24.88;;;12.35;;
60908;SDS011;46780;48.128;-1.704;2023-06-14T13:41:43;21.25;;;11.77;;
60908;SDS011;46780;48.128;-1.704;2023-06-14T13:44:09;18.88;;;11.57;;
60908;SDS011;46780;48.128;-1.704;2023-06-14T13:46:36;20.27;;;12.10;;
60908;SDS011;46780;48.128;-1.704;2023-06-14T13:49:02;22.10;;;11.80;;
60908;SDS011;46780;48.128;-1.704;2023-06-14T13:51:30;19.90;;;12.57;;
60908;SDS011;46780;48.128;-1.704;2023-06-14T13:53:57;23.48;;;12.48;;
60908;SDS011;46780;48.128;-1.704;2023-06-14T13:56:23;20.38;;;11.60;;
60908;SDS011;46780;48.128;-1.704;2023-06-14T13:58:50;23.85;;;12.38;;
60908;SDS011;46780;48.128;-1.704;2023-06-14T14:01:16;23.23;;;12.48;;
60908;SDS011;46780;48.128;-1.704;2023-06-14T14:03:43;24.85;;;12.20;;
60908;SDS011;46780;48.128;-1.704;2023-06-14T14:06:10;20.45;;;12.23;;
60908;SDS011;46780;48.128;-1.704;2023-06-14T14:08:38;23.30;;;12.30;;
60908;SDS011;46780;48.128;-1.704;2023-06-14T14:11:04;20.38;;;12.45;;
60908;SDS011;46780;48.128;-1.704;2023-06-14T14:13:31;23.02;;;11.75;;